Time;durP1;ratioP1;P1;durP2;ratioP2;P2;SDS_P1;SDS_P2;PMS_P1;PMS_P2;Temp;Humidity;BMP_temperature;BMP_pressure;BME280_temperature;BME280_humidity;BME280_pressure;Samples;Min_cycle;Max_cycle;Signal;HPM_P1;HPM_P2
2024/01/22 00:00:08;;;;;;;1999.90;999.90;;;8.10;99.90;;;;;;5090331;28;20078;-71
2024/01/22 00:02:34;;;;;;;1999.90;999.90;;;8.20;99.90;;;;;;5090564;28;20264;-70
2024/01/22 00:05:00;;;;;;;1999.90;999.90;;;8.20;99.90;;;;;;5089704;28;20727;-71
2024/01/22 00:07:26;;;;;;;1999.90;999.90;;;8.30;99.90;;;;;;5072298;28;20031;-70
2024/01/22 00:09:51;;;;;;;1999.90;999.90;;;8.30;99.90;;;;;;5088272;28;20044;-71
2024/01/22 00:12:17;;;;;;;1999.90;999.90;;;8.30;99.90;;;;;;5084269;28;20032;-70
2024/01/22 00:14:43;;;;;;;1999.90;999.90;;;8.30;99.90;;;;;;5071726;28;20024;-70
2024/01/22 00:17:09;;;;;;;1999.90;999.90;;;8.30;99.90;;;;;;5086932;28;20024;-69
2024/01/22 00:19:35;;;;;;;1999.90;999.90;;;8.30;99.90;;;;;;5091250;28;20024;-70
2024/01/22 00:22:01;;;;;;;1999.90;999.90;;;8.30;99.90;;;;;;5092682;28;20103;-70
2024/01/22 00:24:26;;;;;;;1999.90;999.90;;;8.30;99.90;;;;;;5089233;28;20754;-70
2024/01/22 00:26:52;;;;;;;1999.90;999.90;;;8.40;99.90;;;;;;5090107;28;20031;-70
2024/01/22 00:29:18;;;;;;;1999.90;999.90;;;8.40;99.90;;;;;;5089361;28;20110;-70
2024/01/22 00:31:44;;;;;;;1999.90;999.90;;;8.40;99.90;;;;;;5085595;28;20045;-70
2024/01/22 00:34:09;;;;;;;1999.90;999.90;;;8.40;99.90;;;;;;5090143;28;20032;-70
2024/01/22 00:36:35;;;;;;;1999.90;999.90;;;8.50;99.90;;;;;;5086164;28;20040;-70
2024/01/22 00:39:01;;;;;;;1999.90;999.90;;;8.50;99.90;;;;;;5070129;28;20038;-71
2024/01/22 00:41:27;;;;;;;1999.90;999.90;;;8.60;99.90;;;;;;5091939;28;20020;-70
2024/01/22 00:43:52;;;;;;;1999.90;999.90;;;8.60;99.90;;;;;;5073459;28;20047;-70
2024/01/22 00:46:18;;;;;;;1999.90;999.90;;;8.60;99.90;;;;;;5082604;28;20554;-72
2024/01/22 00:48:44;;;;;;;1999.90;999.90;;;8.60;99.90;;;;;;5089694;28;20028;-70
2024/01/22 00:51:10;;;;;;;1999.90;999.90;;;8.60;99.90;;;;;;5088475;28;20088;-70
2024/01/22 00:53:36;;;;;;;1999.90;999.90;;;8.60;99.90;;;;;;5092389;28;20038;-71
2024/01/22 00:56:02;;;;;;;1999.90;999.90;;;8.60;99.90;;;;;;5082019;28;20023;-70
2024/01/22 00:58:28;;;;;;;1999.90;999.90;;;8.60;99.90;;;;;;5087937;28;20012;-70
2024/01/22 01:00:54;;;;;;;1999.90;999.90;;;8.70;99.90;;;;;;5088602;28;20037;-71
2024/01/22 01:03:20;;;;;;;1999.90;999.90;;;8.70;99.90;;;;;;5091370;28;20032;-70
2024/01/22 01:05:46;;;;;;;1999.90;999.90;;;8.70;99.90;;;;;;5090091;28;20482;-70
2024/01/22 01:08:12;;;;;;;1999.90;999.90;;;8.70;99.90;;;;;;5070829;28;20344;-71
2024/01/22 01:10:38;;;;;;;1999.90;999.90;;;8.70;99.90;;;;;;5090539;28;20028;-70
2024/01/22 01:13:03;;;;;;;1999.90;999.90;;;8.80;99.90;;;;;;5089819;28;20457;-70
2024/01/22 01:15:29;;;;;;;1999.90;999.90;;;8.80;99.90;;;;;;5080959;28;20425;-71
2024/01/22 01:17:55;;;;;;;1999.90;999.90;;;8.90;99.90;;;;;;5084137;28;20020;-70
2024/01/22 01:20:21;;;;;;;1999.90;999.90;;;8.90;99.90;;;;;;5087865;28;20038;-70
2024/01/22 01:22:47;;;;;;;1999.90;999.90;;;8.90;99.90;;;;;;5088540;28;20062;-70
2024/01/22 01:25:12;;;;;;;1999.90;999.90;;;8.90;99.90;;;;;;5074634;28;20442;-71
2024/01/22 01:27:38;;;;;;;1999.90;999.90;;;8.90;99.90;;;;;;5089576;28;20118;-71
2024/01/22 01:30:04;;;;;;;1999.90;999.90;;;8.90;99.90;;;;;;5084204;28;20059;-70
2024/01/22 01:32:30;;;;;;;1999.90;999.90;;;8.90;99.90;;;;;;5089334;28;20427;-72
2024/01/22 01:34:56;;;;;;;1999.90;999.90;;;8.90;99.90;;;;;;5089469;28;20089;-70
2024/01/22 01:37:21;;;;;;;1999.90;999.90;;;8.90;99.90;;;;;;5091372;28;20418;-71
2024/01/22 01:39:47;;;;;;;1999.90;999.90;;;8.90;99.90;;;;;;5083532;28;20027;-72
2024/01/22 01:42:13;;;;;;;1999.90;999.90;;;8.90;99.90;;;;;;5062823;28;20028;-71
2024/01/22 01:44:38;;;;;;;1999.90;999.90;;;8.90;99.90;;;;;;5092470;28;20024;-70
2024/01/22 01:47:05;;;;;;;1999.90;999.90;;;8.80;99.90;;;;;;5086057;28;20069;-71
2024/01/22 01:49:30;;;;;;;1999.90;999.90;;;8.90;99.90;;;;;;5071068;28;20046;-71
2024/01/22 01:51:57;;;;;;;1999.90;999.90;;;8.90;99.90;;;;;;5072748;28;20036;-72
2024/01/22 01:54:25;;;;;;;1999.90;999.90;;;8.90;99.90;;;;;;5090235;28;20101;-70
2024/01/22 01:56:51;;;;;;;1999.90;999.90;;;8.90;99.90;;;;;;5087791;28;20591;-71
2024/01/22 01:59:19;;;;;;;1999.90;999.90;;;8.90;99.90;;;;;;5091526;28;20031;-71
2024/01/22 02:01:45;;;;;;;1999.90;999.90;;;8.90;99.90;;;;;;5091044;28;20024;-70
2024/01/22 02:04:10;;;;;;;1999.90;999.90;;;9.00;99.90;;;;;;5074490;28;20039;-72
2024/01/22 02:06:36;;;;;;;1999.90;999.90;;;9.00;99.90;;;;;;5092257;28;20465;-71
2024/01/22 02:09:02;;;;;;;1999.90;999.90;;;9.00;99.90;;;;;;5091203;28;20032;-71
2024/01/22 02:11:28;;;;;;;1999.90;999.90;;;9.00;99.90;;;;;;5073674;28;20099;-73
2024/01/22 02:13:54;;;;;;;1999.90;999.90;;;9.10;99.90;;;;;;5069811;28;20411;-71
2024/01/22 02:16:20;;;;;;;1999.90;999.90;;;9.10;99.90;;;;;;5082194;28;20039;-71
2024/01/22 02:18:45;;;;;;;1999.90;999.90;;;9.20;99.90;;;;;;5077062;28;20669;-71
2024/01/22 02:21:11;;;;;;;1999.90;999.90;;;9.30;99.90;;;;;;5094992;28;20028;-71
2024/01/22 02:23:37;;;;;;;1999.90;999.90;;;9.40;99.90;;;;;;5093629;28;20028;-71
2024/01/22 02:26:03;;;;;;;1999.90;999.90;;;9.50;99.90;;;;;;5071702;28;20020;-71
2024/01/22 02:28:31;;;;;;;1999.90;999.90;;;9.60;99.90;;;;;;5094408;28;20119;-71
2024/01/22 02:30:57;;;;;;;1999.90;999.90;;;9.70;99.90;;;;;;5089688;28;20102;-71
2024/01/22 02:33:22;;;;;;;1999.90;999.90;;;9.60;99.90;;;;;;5089641;28;20103;-70
2024/01/22 02:35:48;;;;;;;1999.90;999.90;;;9.70;99.90;;;;;;5093998;28;20308;-71
2024/01/22 02:38:14;;;;;;;1999.90;999.90;;;9.70;99.90;;;;;;5094360;28;20042;-70
2024/01/22 02:40:39;;;;;;;1999.90;999.90;;;9.70;99.90;;;;;;5071089;28;20462;-71
2024/01/22 02:43:05;;;;;;;1999.90;999.90;;;9.70;99.90;;;;;;5091441;28;20020;-72
2024/01/22 02:45:31;;;;;;;1999.90;999.90;;;9.70;99.90;;;;;;5082972;28;20032;-70
2024/01/22 02:47:57;;;;;;;1999.90;999.90;;;9.70;99.90;;;;;;5089516;28;20069;-70
2024/01/22 02:50:22;;;;;;;1999.90;999.90;;;9.80;99.90;;;;;;5094162;28;20024;-71
2024/01/22 02:52:49;;;;;;;1999.90;999.90;;;9.80;99.90;;;;;;5092982;28;20081;-71
2024/01/22 02:55:14;;;;;;;1999.90;999.90;;;9.90;99.90;;;;;;5088327;28;20051;-71
2024/01/22 02:57:40;;;;;;;1999.90;999.90;;;9.90;99.90;;;;;;5093848;28;20024;-71
2024/01/22 03:00:06;;;;;;;1999.90;999.90;;;9.80;99.90;;;;;;5094176;28;20142;-73
2024/01/22 03:02:32;;;;;;;1999.90;999.90;;;9.90;99.90;;;;;;5076521;28;20020;-71
2024/01/22 03:04:58;;;;;;;1999.90;999.90;;;10.00;99.90;;;;;;5090448;28;20331;-70
2024/01/22 03:07:23;;;;;;;1999.90;999.90;;;10.00;99.90;;;;;;5086307;28;20016;-70
2024/01/22 03:09:49;;;;;;;1999.90;999.90;;;10.00;99.90;;;;;;5090115;28;20043;-71
2024/01/22 03:12:15;;;;;;;1999.90;999.90;;;10.00;99.90;;;;;;5085642;28;20064;-71
2024/01/22 03:14:41;;;;;;;1999.90;999.90;;;10.10;99.90;;;;;;5092641;28;20305;-71
2024/01/22 03:17:06;;;;;;;1999.90;999.90;;;10.20;99.90;;;;;;5092664;28;20050;-72
2024/01/22 03:19:32;;;;;;;1999.90;999.90;;;10.20;99.90;;;;;;5091154;28;20023;-71
2024/01/22 03:21:58;;;;;;;1999.90;999.90;;;10.20;99.90;;;;;;5092177;28;20035;-70
2024/01/22 03:24:23;;;;;;;1999.90;999.90;;;10.30;99.90;;;;;;5066897;28;20104;-70
2024/01/22 03:26:49;;;;;;;1999.90;999.90;;;10.20;99.90;;;;;;5088696;28;20043;-71
2024/01/22 03:29:15;;;;;;;1999.90;999.90;;;10.30;99.90;;;;;;5088612;28;20362;-71
2024/01/22 03:31:41;;;;;;;1999.90;999.90;;;10.30;99.90;;;;;;5090950;28;20066;-70
2024/01/22 03:34:06;;;;;;;1999.90;999.90;;;10.30;99.90;;;;;;5090465;28;21227;-71
2024/01/22 03:36:37;;;;;;;1999.90;999.90;;;10.40;99.90;;;;;;5083945;28;20129;-70
2024/01/22 03:39:03;;;;;;;;;;;10.40;99.90;;;;;;5083934;28;20029;-71
2024/01/22 03:41:28;;;;;;;1999.90;999.90;;;10.40;99.90;;;;;;5086923;28;19908;-71
2024/01/22 03:43:54;;;;;;;1999.90;999.90;;;10.50;99.90;;;;;;5089585;28;20058;-70
2024/01/22 03:46:20;;;;;;;1999.90;999.90;;;10.40;99.90;;;;;;5090209;28;20449;-71
2024/01/22 03:48:45;;;;;;;1999.90;999.90;;;10.50;99.90;;;;;;5076590;28;20028;-71
2024/01/22 03:51:11;;;;;;;1999.90;999.90;;;10.50;99.90;;;;;;5069911;28;20114;-71
2024/01/22 03:53:37;;;;;;;1999.90;999.90;;;10.50;99.90;;;;;;5089287;28;20032;-70
2024/01/22 03:56:05;;;;;;;1999.90;999.90;;;10.50;99.90;;;;;;5089440;28;20028;-72
2024/01/22 03:58:31;;;;;;;1999.90;999.90;;;10.50;99.90;;;;;;5099316;28;20339;-71
2024/01/22 04:00:57;;;;;;;1999.90;999.90;;;10.50;99.90;;;;;;5075166;28;20035;-71
2024/01/22 04:03:23;;;;;;;1999.90;999.90;;;10.50;99.90;;;;;;5093398;28;20326;-71
2024/01/22 04:05:48;;;;;;;1999.90;999.90;;;10.50;99.90;;;;;;5074696;28;20027;-72
2024/01/22 04:08:14;;;;;;;1999.90;999.90;;;10.60;99.90;;;;;;5087994;28;20089;-72
2024/01/22 04:10:40;;;;;;;1999.90;999.90;;;10.60;99.90;;;;;;5074328;28;20032;-71
2024/01/22 04:13:06;;;;;;;1999.90;999.90;;;10.60;99.90;;;;;;5090722;28;20096;-70
2024/01/22 04:15:31;;;;;;;1999.90;999.90;;;10.60;99.90;;;;;;5084772;28;20089;-71
2024/01/22 04:17:57;;;;;;;1999.90;999.90;;;10.60;99.90;;;;;;5074572;28;20020;-71
2024/01/22 04:20:23;;;;;;;1999.90;999.90;;;10.70;99.90;;;;;;5077402;28;20032;-70
2024/01/22 04:22:51;;;;;;;1999.90;999.90;;;10.70;99.90;;;;;;5089623;28;20035;-71
2024/01/22 04:25:17;;;;;;;1999.90;999.90;;;10.70;99.90;;;;;;5092937;28;20036;-70
2024/01/22 04:27:43;;;;;;;1999.90;999.90;;;10.70;99.90;;;;;;5087416;28;20438;-71
2024/01/22 04:30:09;;;;;;;1999.90;999.90;;;10.80;99.90;;;;;;5090705;28;20028;-71
2024/01/22 04:32:35;;;;;;;1999.90;999.90;;;10.80;99.90;;;;;;5068297;28;20140;-70
2024/01/22 04:35:02;;;;;;;1999.90;999.90;;;10.80;99.90;;;;;;5074165;28;20450;-71
2024/01/22 04:37:28;;;;;;;1999.90;999.90;;;10.90;99.90;;;;;;5091698;28;20144;-71
2024/01/22 04:39:55;;;;;;;1999.90;999.90;;;10.90;99.90;;;;;;5075213;28;20516;-71
2024/01/22 04:42:21;;;;;;;1999.90;999.90;;;10.90;99.90;;;;;;5091091;28;20327;-71
2024/01/22 04:44:47;;;;;;;1999.90;999.90;;;10.90;99.90;;;;;;5092855;28;20028;-71
2024/01/22 04:47:13;;;;;;;1999.90;999.90;;;11.00;99.90;;;;;;5096455;28;20028;-70
2024/01/22 04:49:39;;;;;;;1999.90;999.90;;;11.10;99.90;;;;;;5092625;28;20046;-70
2024/01/22 04:52:06;;;;;;;1999.90;999.90;;;11.10;99.90;;;;;;5069658;28;20032;-70
2024/01/22 04:54:32;;;;;;;1999.90;999.90;;;11.10;99.90;;;;;;5081272;28;20024;-70
2024/01/22 04:56:57;;;;;;;1999.90;999.90;;;11.10;99.90;;;;;;5086467;28;20027;-70
2024/01/22 04:59:23;;;;;;;1999.90;999.90;;;11.10;99.90;;;;;;5090120;28;20039;-71
2024/01/22 05:01:49;;;;;;;1999.90;999.90;;;11.10;99.90;;;;;;5087255;28;20058;-71
2024/01/22 05:04:15;;;;;;;1999.90;999.90;;;11.10;99.90;;;;;;5089833;28;20035;-71
2024/01/22 05:06:41;;;;;;;1999.90;999.90;;;11.20;99.90;;;;;;5090488;28;20032;-70
2024/01/22 05:09:07;;;;;;;1999.90;999.90;;;11.10;99.90;;;;;;5091148;28;20028;-71
2024/01/22 05:11:33;;;;;;;1999.90;999.90;;;11.10;99.90;;;;;;5070516;28;20080;-71
2024/01/22 05:13:59;;;;;;;1999.90;999.90;;;11.10;99.90;;;;;;5087877;28;20422;-71
2024/01/22 05:16:25;;;;;;;1999.90;999.90;;;11.00;99.90;;;;;;5082332;28;20058;-70
2024/01/22 05:18:51;;;;;;;1999.90;999.90;;;10.90;99.90;;;;;;5087893;28;20059;-71
2024/01/22 05:21:17;;;;;;;1999.90;999.90;;;10.90;99.90;;;;;;5089175;28;20423;-71
2024/01/22 05:23:43;;;;;;;1999.90;999.90;;;10.90;99.90;;;;;;5091769;28;20114;-71
2024/01/22 05:26:09;;;;;;;1999.90;999.90;;;10.80;99.90;;;;;;5087452;28;20020;-71
2024/01/22 05:28:36;;;;;;;1999.90;999.90;;;10.80;99.90;;;;;;5091619;28;20031;-71
2024/01/22 05:31:02;;;;;;;1999.90;999.90;;;10.80;99.90;;;;;;5088177;28;20289;-71
2024/01/22 05:33:28;;;;;;;1999.90;999.90;;;10.80;99.90;;;;;;5089639;28;20326;-70
2024/01/22 05:35:55;;;;;;;1999.90;999.90;;;10.90;99.90;;;;;;5090681;28;20023;-71
2024/01/22 05:38:21;;;;;;;1999.90;999.90;;;10.90;99.90;;;;;;5087487;28;20324;-71
2024/01/22 05:40:47;;;;;;;1999.90;999.90;;;10.80;99.90;;;;;;5071855;28;20028;-71
2024/01/22 05:43:13;;;;;;;1999.90;999.90;;;10.80;99.90;;;;;;5074209;28;20077;-71
2024/01/22 05:45:39;;;;;;;1999.90;999.90;;;10.80;99.90;;;;;;5073503;28;20038;-71
2024/01/22 05:48:06;;;;;;;1999.90;999.90;;;10.80;99.90;;;;;;5089966;28;20029;-70
2024/01/22 05:50:33;;;;;;;1999.90;999.90;;;10.80;99.90;;;;;;5091259;28;20111;-71
2024/01/22 05:52:59;;;;;;;1999.90;999.90;;;10.80;99.90;;;;;;5073253;28;20039;-72
2024/01/22 05:55:28;;;;;;;1999.90;999.90;;;10.80;99.90;;;;;;5069305;28;20029;-72
2024/01/22 05:57:54;;;;;;;1999.90;999.90;;;10.90;99.90;;;;;;5071462;28;20032;-71
2024/01/22 06:00:20;;;;;;;1999.90;999.90;;;10.90;99.90;;;;;;5085484;28;20016;-71
2024/01/22 06:02:46;;;;;;;1999.90;999.90;;;11.00;99.90;;;;;;5089827;28;20024;-71
2024/01/22 06:05:12;;;;;;;1999.90;999.90;;;11.00;99.90;;;;;;5085258;28;20111;-71
2024/01/22 06:07:38;;;;;;;1999.90;999.90;;;11.00;99.90;;;;;;5069718;28;20359;-71
2024/01/22 06:10:06;;;;;;;1999.90;999.90;;;11.00;99.90;;;;;;5085627;28;20032;-71
2024/01/22 06:12:32;;;;;;;1999.90;999.90;;;11.10;99.90;;;;;;5066686;28;20455;-70
2024/01/22 06:14:57;;;;;;;1999.90;999.90;;;11.10;99.90;;;;;;5070034;28;20040;-71
2024/01/22 06:17:24;;;;;;;1999.90;999.90;;;11.10;99.90;;;;;;5086100;28;20036;-71
2024/01/22 06:19:50;;;;;;;1999.90;999.90;;;11.10;99.90;;;;;;5087447;28;20032;-70
2024/01/22 06:22:17;;;;;;;1999.90;999.90;;;11.10;99.90;;;;;;5084182;28;20028;-71
2024/01/22 06:24:44;;;;;;;1999.90;999.90;;;11.10;99.90;;;;;;5088180;28;20024;-70
2024/01/22 06:27:10;;;;;;;;;;;11.20;99.90;;;;;;5088133;28;20086;-70
2024/01/22 06:29:36;;;;;;;1999.90;999.90;;;11.20;99.90;;;;;;5087858;28;19912;-71
2024/01/22 06:32:02;;;;;;;1999.90;999.90;;;11.20;99.90;;;;;;5084559;28;20047;-71
2024/01/22 06:34:28;;;;;;;1999.90;999.90;;;11.10;99.90;;;;;;5086290;28;20031;-70
2024/01/22 06:36:53;;;;;;;1999.90;999.90;;;11.20;99.90;;;;;;5085659;28;20024;-70
2024/01/22 06:39:19;;;;;;;1999.90;999.90;;;11.20;99.90;;;;;;5072447;28;20532;-70
2024/01/22 06:41:45;;;;;;;1999.90;999.90;;;11.30;99.90;;;;;;5084944;28;20035;-70
2024/01/22 06:44:11;;;;;;;1999.90;999.90;;;11.40;99.90;;;;;;5090394;28;20110;-70
2024/01/22 06:46:36;;;;;;;1999.90;999.90;;;11.40;99.90;;;;;;5078002;28;20033;-70
2024/01/22 06:49:02;;;;;;;1999.90;999.90;;;11.50;99.90;;;;;;5091687;28;20364;-71
2024/01/22 06:51:29;;;;;;;1999.90;999.90;;;11.50;99.90;;;;;;5084939;28;20483;-70
2024/01/22 06:53:56;;;;;;;1999.90;999.90;;;11.50;99.90;;;;;;5082096;28;20020;-70
2024/01/22 06:56:22;;;;;;;;;;;11.50;99.90;;;;;;5084549;28;20409;-70
2024/01/22 06:58:48;;;;;;;;;;;11.50;99.90;;;;;;5082326;28;19943;-70
2024/01/22 07:01:14;;;;;;;1999.90;999.90;;;11.50;99.90;;;;;;5083664;28;20254;-70
2024/01/22 07:03:39;;;;;;;1999.90;999.90;;;11.50;99.90;;;;;;5077000;28;20388;-70
2024/01/22 07:06:05;;;;;;;1999.90;999.90;;;11.50;99.90;;;;;;5088058;28;20031;-70
2024/01/22 07:08:31;;;;;;;1999.90;999.90;;;11.50;99.90;;;;;;5091762;28;20044;-70
2024/01/22 07:11:00;;;;;;;1999.90;999.90;;;11.60;99.90;;;;;;5085228;28;20020;-70
2024/01/22 07:13:26;;;;;;;1999.90;999.90;;;11.50;99.90;;;;;;5086754;28;20031;-70
2024/01/22 07:15:51;;;;;;;1999.90;999.90;;;11.60;99.90;;;;;;5091339;28;20028;-70
2024/01/22 07:18:18;;;;;;;1999.90;999.90;;;11.60;99.90;;;;;;5094366;28;20334;-70
2024/01/22 07:20:44;;;;;;;1999.90;999.90;;;11.60;99.90;;;;;;5071729;28;20453;-71
2024/01/22 07:23:10;;;;;;;1999.90;999.90;;;11.60;99.90;;;;;;5090040;28;20029;-70
2024/01/22 07:25:37;;;;;;;1999.90;999.90;;;11.50;99.90;;;;;;5086581;28;20295;-70
2024/01/22 07:28:04;;;;;;;1999.90;999.90;;;11.50;99.90;;;;;;5074405;28;20377;-69
2024/01/22 07:30:30;;;;;;;1999.90;999.90;;;11.50;99.90;;;;;;5086224;28;20774;-70
2024/01/22 07:32:56;;;;;;;1999.90;999.90;;;11.50;99.90;;;;;;5092459;28;20052;-70
2024/01/22 07:35:24;;;;;;;;;;;11.50;99.90;;;;;;5073487;28;20079;-71
2024/01/22 07:37:50;;;;;;;1999.90;999.90;;;11.50;99.90;;;;;;5093752;28;19957;-71
2024/01/22 07:40:17;;;;;;;1999.90;999.90;;;11.50;99.90;;;;;;5090067;28;20028;-70
2024/01/22 07:42:43;;;;;;;1999.90;999.90;;;11.50;99.90;;;;;;5086693;28;20300;-70
2024/01/22 07:45:10;;;;;;;1999.90;999.90;;;11.50;99.90;;;;;;5090401;28;20066;-71
2024/01/22 07:47:36;;;;;;;1999.90;999.90;;;11.50;99.90;;;;;;5089913;28;20028;-73
2024/01/22 07:50:05;;;;;;;1999.90;999.90;;;11.40;99.90;;;;;;5093189;28;20043;-70
2024/01/22 07:52:34;;;;;;;1999.90;999.90;;;11.40;99.90;;;;;;5074586;28;20380;-70
2024/01/22 07:55:01;;;;;;;1999.90;999.90;;;11.30;99.90;;;;;;5093140;28;20086;-70
2024/01/22 07:57:28;;;;;;;1999.90;999.90;;;11.30;99.90;;;;;;5075834;28;20035;-70
2024/01/22 07:59:54;;;;;;;1999.90;999.90;;;11.10;99.90;;;;;;5086186;28;20506;-71
2024/01/22 08:02:20;;;;;;;1999.90;999.90;;;11.10;99.90;;;;;;5085692;28;20050;-71
2024/01/22 08:04:45;;;;;;;1999.90;999.90;;;11.00;99.90;;;;;;5066319;28;20593;-71
2024/01/22 08:07:12;;;;;;;1999.90;999.90;;;11.00;99.90;;;;;;5092520;28;20415;-71
2024/01/22 08:09:38;;;;;;;1999.90;999.90;;;11.00;99.90;;;;;;5085224;28;20484;-70
2024/01/22 08:12:04;;;;;;;1999.90;999.90;;;10.90;99.90;;;;;;5087514;28;20038;-71
2024/01/22 08:14:31;;;;;;;1999.90;999.90;;;11.00;99.90;;;;;;5073885;28;20028;-71
2024/01/22 08:16:57;;;;;;;1999.90;999.90;;;10.90;99.90;;;;;;5065753;28;20036;-71
2024/01/22 08:19:23;;;;;;;1999.90;999.90;;;10.90;99.90;;;;;;5070664;28;20431;-71
2024/01/22 08:21:49;;;;;;;1999.90;999.90;;;10.90;99.90;;;;;;5084679;28;20028;-71
2024/01/22 08:24:15;;;;;;;1999.90;999.90;;;10.90;99.90;;;;;;5090913;28;20030;-72
2024/01/22 08:26:42;;;;;;;1999.90;999.90;;;10.90;99.90;;;;;;5086321;28;20037;-71
2024/01/22 08:29:08;;;;;;;1999.90;999.90;;;10.90;99.90;;;;;;5090723;28;20024;-70
2024/01/22 08:31:34;;;;;;;1999.90;999.90;;;10.90;99.90;;;;;;5069439;28;20066;-71
2024/01/22 08:34:01;;;;;;;1999.90;999.90;;;10.90;99.90;;;;;;5063427;28;20558;-70
2024/01/22 08:36:26;;;;;;;1999.90;999.90;;;10.90;99.90;;;;;;5071652;28;20149;-70
2024/01/22 08:38:52;;;;;;;1999.90;999.90;;;10.90;99.90;;;;;;5071487;28;20070;-70
2024/01/22 08:41:18;;;;;;;1999.90;999.90;;;10.90;99.90;;;;;;5071009;28;20093;-71
2024/01/22 08:43:44;;;;;;;1999.90;999.90;;;10.90;99.90;;;;;;5064885;28;20024;-71
2024/01/22 08:46:09;;;;;;;1999.90;999.90;;;10.80;99.90;;;;;;5063679;28;20028;-72
2024/01/22 08:48:35;;;;;;;1999.90;999.90;;;10.80;99.90;;;;;;5063168;28;20029;-71
2024/01/22 08:51:01;;;;;;;1999.90;999.90;;;10.80;99.90;;;;;;5069093;28;20028;-71
2024/01/22 08:53:27;;;;;;;1999.90;999.90;;;10.80;99.90;;;;;;5056664;28;20032;-71
2024/01/22 08:55:53;;;;;;;1999.90;999.90;;;10.70;99.90;;;;;;5065435;28;20072;-71
2024/01/22 08:58:19;;;;;;;1999.90;999.90;;;10.60;99.90;;;;;;5065027;28;20012;-72
2024/01/22 09:00:44;;;;;;;1999.90;999.90;;;10.60;99.90;;;;;;5071667;28;20078;-71
2024/01/22 09:03:10;;;;;;;1999.90;999.90;;;10.60;99.90;;;;;;5069701;28;20146;-71
2024/01/22 09:05:36;;;;;;;1999.90;999.90;;;10.50;99.90;;;;;;5065329;28;20032;-71
2024/01/22 09:08:02;;;;;;;1999.90;999.90;;;10.50;99.90;;;;;;5069959;28;20077;-70
2024/01/22 09:10:28;;;;;;;1999.90;999.90;;;10.50;99.90;;;;;;5062135;28;20028;-71
2024/01/22 09:12:54;;;;;;;1999.90;999.90;;;10.40;99.90;;;;;;5069474;28;20029;-71
2024/01/22 09:15:19;;;;;;;1999.90;999.90;;;10.40;99.90;;;;;;5066565;28;20418;-71
2024/01/22 09:17:45;;;;;;;1999.90;999.90;;;10.40;99.90;;;;;;5067260;28;20039;-70
2024/01/22 09:20:12;;;;;;;1999.90;999.90;;;10.30;99.90;;;;;;5057613;28;20025;-71
2024/01/22 09:22:38;;;;;;;1999.90;999.90;;;10.30;99.90;;;;;;5066598;28;20025;-71
2024/01/22 09:25:05;;;;;;;1999.90;999.90;;;10.30;99.90;;;;;;5064348;28;20075;-70
2024/01/22 09:27:31;;;;;;;1999.90;999.90;;;10.20;99.90;;;;;;5061872;28;20040;-70
2024/01/22 09:29:58;;;;;;;1999.90;999.90;;;10.20;99.90;;;;;;5070461;28;20025;-71
2024/01/22 09:32:25;;;;;;;;;;;10.30;99.90;;;;;;5073441;28;20049;-71
2024/01/22 09:34:51;;;;;;;1999.90;999.90;;;10.30;99.90;;;;;;5080635;28;19920;-71
2024/01/22 09:37:17;;;;;;;1999.90;999.90;;;10.30;99.90;;;;;;5085160;28;20052;-70
2024/01/22 09:39:45;;;;;;;1999.90;999.90;;;10.30;99.90;;;;;;5077315;28;20453;-71
2024/01/22 09:42:14;;;;;;;1999.90;999.90;;;10.20;99.90;;;;;;5089090;28;20012;-70
2024/01/22 09:44:41;;;;;;;1999.90;999.90;;;10.20;99.90;;;;;;5069173;28;20051;-71
2024/01/22 09:47:09;;;;;;;1999.90;999.90;;;10.20;99.90;;;;;;5076567;28;20040;-70
2024/01/22 09:49:36;;;;;;;1999.90;999.90;;;10.20;99.90;;;;;;5084581;28;20105;-70
2024/01/22 09:52:03;;;;;;;1999.90;999.90;;;10.20;99.90;;;;;;5069846;28;20024;-70
2024/01/22 09:54:30;;;;;;;1999.90;999.90;;;10.20;99.90;;;;;;5083293;28;20043;-71
2024/01/22 09:57:02;;;;;;;1999.90;999.90;;;10.20;99.90;;;;;;5083177;28;20024;-70
2024/01/22 09:59:29;;;;;;;1999.90;999.90;;;10.20;99.90;;;;;;5085454;28;20013;-70
2024/01/22 10:01:55;;;;;;;1999.90;999.90;;;10.20;99.90;;;;;;5062896;28;20032;-71
2024/01/22 10:04:26;;;;;;;1999.90;999.90;;;10.20;99.90;;;;;;5084130;28;20036;-70
2024/01/22 10:06:52;;;;;;;1999.90;999.90;;;10.20;99.90;;;;;;5088126;28;20033;-70
2024/01/22 10:09:18;;;;;;;1999.90;999.90;;;10.20;99.90;;;;;;5087670;28;20025;-70
2024/01/22 10:11:46;;;;;;;1999.90;999.90;;;10.10;99.90;;;;;;5069901;28;20036;-70
2024/01/22 10:14:12;;;;;;;1999.90;999.90;;;10.10;99.90;;;;;;5079954;28;20331;-70
2024/01/22 10:16:38;;;;;;;1999.90;999.90;;;10.20;99.90;;;;;;5069059;28;20032;-71
2024/01/22 10:19:07;;;;;;;1999.90;999.90;;;10.30;99.90;;;;;;5083227;28;20111;-70
2024/01/22 10:21:37;;;;;;;1999.90;999.90;;;10.30;99.90;;;;;;5067414;28;20042;-70
2024/01/22 10:24:04;;;;;;;1999.90;999.90;;;10.30;99.90;;;;;;5084897;28;20020;-70
2024/01/22 10:26:30;;;;;;;;;;;10.40;99.90;;;;;;5072431;28;20060;-70
2024/01/22 10:29:29;;;;;;;1999.90;999.90;;;10.40;99.90;;;;;;5082758;28;20021;-71
2024/01/22 10:31:56;;;;;;;1999.90;999.90;;;10.40;99.90;;;;;;4989089;28;20054;-71
2024/01/22 10:34:28;;;;;;;1999.90;999.90;;;10.40;99.90;;;;;;5008514;28;20633;-70
2024/01/22 10:37:08;;;;;;;1999.90;999.90;;;10.50;99.90;;;;;;5009489;28;20026;-70
2024/01/22 10:39:35;;;;;;;1999.90;999.90;;;10.50;99.90;;;;;;5003838;28;20112;-70
2024/01/22 10:42:07;;;;;;;1999.90;999.90;;;10.50;99.90;;;;;;5006321;28;20045;-70
2024/01/22 10:44:36;;;;;;;1999.90;999.90;;;10.50;99.90;;;;;;5009491;28;20058;-70
2024/01/22 10:47:03;;;;;;;1999.90;999.90;;;10.50;99.90;;;;;;4992942;28;20380;-70
2024/01/22 10:49:30;;;;;;;1999.90;999.90;;;10.60;99.90;;;;;;5007737;28;20066;-70
2024/01/22 10:51:59;;;;;;;1999.90;999.90;;;10.60;99.90;;;;;;4994029;28;20173;-70
2024/01/22 10:54:26;;;;;;;1999.90;999.90;;;10.70;99.90;;;;;;5010451;28;20048;-70
2024/01/22 10:57:04;;;;;;;1999.90;999.90;;;10.70;99.90;;;;;;5012201;28;20033;-70
2024/01/22 10:59:38;;;;;;;1999.90;999.90;;;10.70;99.90;;;;;;4996114;28;20034;-70
2024/01/22 11:02:12;;;;;;;1999.90;999.90;;;10.70;99.90;;;;;;5007727;28;20069;-70
2024/01/22 11:04:50;;;;;;;1999.90;999.90;;;10.70;99.90;;;;;;5010143;28;20038;-70
2024/01/22 11:07:17;;;;;;;1999.90;999.90;;;10.70;99.90;;;;;;5041017;28;20040;-70
2024/01/22 11:09:49;;;;;;;1999.90;999.90;;;10.70;99.90;;;;;;5073643;28;20672;-71
2024/01/22 11:12:19;;;;;;;1999.90;999.90;;;10.80;99.90;;;;;;5086474;28;20415;-72
2024/01/22 11:14:45;;;;;;;1999.90;999.90;;;10.80;99.90;;;;;;5092380;28;20063;-70
2024/01/22 11:17:14;;;;;;;1999.90;999.90;;;10.70;99.90;;;;;;5087443;28;20049;-70
2024/01/22 11:19:40;;;;;;;1999.90;999.90;;;10.80;99.90;;;;;;5086846;28;20039;-70
2024/01/22 11:22:21;;;;;;;1999.90;999.90;;;10.80;99.90;;;;;;5090071;28;20074;-70
2024/01/22 11:25:09;;;;;;;1999.90;999.90;;;10.80;99.90;;;;;;5072371;28;20037;-70
2024/01/22 11:27:39;;;;;;;1999.90;999.90;;;10.80;99.90;;;;;;5092842;28;20559;-70
2024/01/22 11:30:21;;;;;;;1999.90;999.90;;;10.80;99.90;;;;;;5088043;28;20454;-70
2024/01/22 11:32:47;;;;;;;1999.90;999.90;;;10.80;99.90;;;;;;5087666;28;20066;-70
2024/01/22 11:35:31;;;;;;;1999.90;999.90;;;10.80;99.90;;;;;;5089418;28;20044;-71
2024/01/22 11:37:57;;;;;;;1999.90;999.90;;;10.80;99.90;;;;;;5067032;28;20508;-71
2024/01/22 11:40:52;;;;;;;1999.90;999.90;;;10.80;99.90;;;;;;5079453;28;20024;-70
2024/01/22 11:43:21;;;;;;;1999.90;999.90;;;10.80;99.90;;;;;;5088498;28;20261;-70
2024/01/22 11:45:56;;;;;;;1999.90;999.90;;;10.80;99.90;;;;;;5090660;28;20032;-70
2024/01/22 11:48:23;;;;;;;1999.90;999.90;;;10.80;99.90;;;;;;5078403;28;20165;-70
2024/01/22 11:51:00;;;;;;;1999.90;999.90;;;10.80;99.90;;;;;;5085823;28;20103;-69
2024/01/22 11:53:29;;;;;;;1999.90;999.90;;;10.90;99.90;;;;;;5091306;28;20032;-70
2024/01/22 11:56:02;;;;;;;1999.90;999.90;;;10.90;99.90;;;;;;5088692;28;20040;-70
2024/01/22 11:58:29;;;;;;;1999.90;999.90;;;10.90;99.90;;;;;;5083679;28;20062;-72
2024/01/22 12:00:55;;;;;;;;;;;10.90;99.90;;;;;;5080924;28;20044;-70